Nearby METAR Reports

 

KSJC - San Jose, California, USA
Distance from station: NE 9mi, 14km
Updated: Tue, 25-Jun-2024 3:53pm PDT
Mostly cloudy
Mostly cloudy
 Wind from NW
Wind: NW 14 mph, 22 km/h
Temperature: 84°F, 29°C
Dew Point: 54°F, 12°C
Humidity: 35%
Barometer: 29.88 inHg, 1011.9 hPa
Clouds: Mostly cloudy
Visibility: 10 miles, 16 km
Cloud details: Partly cloudy 8000 ft
Mostly cloudy 10000 ft
Mostly cloudy 15000 ft
2024/06/25 22:53 KSJC 252253Z 31012KT 10SM SCT080 BKN100 BKN150 29/12 A2988 RMK AO2 SLP118 T02940117
KNUQ - Moffett Nas/Mtn, California, USA
Distance from station: N 9mi, 14km
Updated: Tue, 25-Jun-2024 3:55pm PDT
Clear
Clear
 Wind from NNW
Wind: NNW 13 mph, 20 km/h
Temperature: 73°F, 23°C
Dew Point: 54°F, 12°C
Humidity: 50%
Barometer: 29.89 inHg, 1012.2 hPa
Clouds: Clear
Visibility: 10 miles, 16 km
2024/06/25 22:55 KNUQ 252255Z AUTO 34011KT 10SM CLR 23/12 A2989 RMK AO2
 
KPAO - Palo Alto, California, USA
Distance from station: NNW 14mi, 23km
Updated: Tue, 25-Jun-2024 3:47pm PDT
Mostly cloudy
Mostly cloudy
 Wind from NNW
Wind: NNW 15 mph, 24 km/h
Temperature: 72°F, 22°C
Dew Point: 57°F, 14°C
Humidity: 61%
Barometer: 29.90 inHg, 1012.5 hPa
Clouds: Mostly cloudy
Visibility: 10 miles, 16 km
Cloud details: Mostly cloudy 20000 ft
2024/06/25 22:47 KPAO 252247Z 34013KT 10SM BKN200 22/14 A2990
KRHV - San Jose/Reid, California, USA
Distance from station: ENE 12mi, 19km
Updated: Tue, 25-Jun-2024 3:47pm PDT
Mostly cloudy
Mostly cloudy
 Wind from NW
Wind: NW 12 mph, 19 km/h
Temperature: 84°F, 29°C
Heat Index: 83°F, 28°C
Dew Point: 57°F, 14°C
Humidity: 40%
Barometer: 29.88 inHg, 1011.9 hPa
Clouds: Mostly cloudy
Visibility: 10 miles, 16 km
Cloud details: Mostly cloudy 10000 ft
2024/06/25 22:47 KRHV 252247Z 31010KT 10SM BKN100 29/14 A2988
 
KOAK - Oakland, California, USA
Distance from station: NNW 31mi, 50km
Updated: Tue, 25-Jun-2024 3:53pm PDT
Mostly cloudy
Mostly cloudy
 Wind from NW
Wind: NW 15 mph, 24 km/h
Temperature: 73°F, 23°C
Dew Point: 52°F, 11°C
Humidity: 47%
Barometer: 29.91 inHg, 1012.9 hPa
Clouds: Mostly cloudy
Visibility: 10 miles, 16 km
Cloud details: Few Clouds 800 ft
Partly cloudy 9000 ft
Mostly cloudy 14000 ft
2024/06/25 22:53 KOAK 252253Z 31013KT 10SM FEW008 SCT090 BKN140 23/11 A2991 RMK AO2 SLP127 T02280111
KSQL - San Carlos Airpo, California, USA
Distance from station: NW 21mi, 34km
Updated: Tue, 25-Jun-2024 3:47pm PDT
Clear
Clear
 Wind from N
Wind: N 15 mph, 24 km/h
Temperature: 79°F, 26°C
Dew Point: 57°F, 14°C
Humidity: 48%
Barometer: 29.89 inHg, 1012.2 hPa
Clouds: Clear
Visibility: 10 miles, 16 km
2024/06/25 22:47 KSQL 252247Z 36013KT 10SM CLR 26/14 A2989
 
KSFO - San Francisco, California, USA
Distance from station: NW 30mi, 49km
Updated: Tue, 25-Jun-2024 3:56pm PDT
Mostly cloudy
Mostly cloudy
 Wind from WNW
Wind: WNW 18 mph, 30 km/h
Temperature: 68°F, 20°C
Dew Point: 52°F, 11°C
Humidity: 56%
Barometer: 29.90 inHg, 1012.5 hPa
Clouds: Mostly cloudy
Visibility: 10 miles, 16 km
Cloud details: Few Clouds 3400 ft
Partly cloudy 15000 ft
Mostly cloudy 20000 ft
2024/06/25 22:56 KSFO 252256Z 30016KT 10SM FEW034 SCT150 BKN200 20/11 A2990 RMK AO2 SLP125 T02000111
KE16 - San Martin, California, USA
Distance from station: ESE 27mi, 43km
Updated: Tue, 25-Jun-2024 3:35pm PDT
Clear
Clear
 Wind from S
Wind: S 10 mph, 17 km/h
Temperature: 86°F, 30°C
Dew Point: 45°F, 7°C
Humidity: 24%
Barometer: 29.90 inHg, 1012.5 hPa
Clouds: Clear
Visibility: 10 miles, 16 km
2024/06/25 22:35 KE16 252235Z AUTO 17009KT 10SM CLR 30/07 A2990 RMK AO2 PWINO PNO
 
KWVI - Watsonville, California, USA
Distance from station: SSE 27mi, 44km
Updated: Tue, 25-Jun-2024 3:53pm PDT
Clear
Clear
 Wind from WSW
Wind: WSW 7 mph, 11 km/h
Temperature: 70°F, 21°C
Dew Point: 50°F, 10°C
Humidity: 50%
Barometer: 29.96 inHg, 1014.6 hPa
Clouds: Clear
Visibility: 10 miles, 16 km
2024/06/25 22:53 KWVI 252253Z AUTO 24006KT 10SM CLR 21/10 A2996 RMK AO2 SLP143 T02110100
KHAF - Half Moon Bay, California, USA
Distance from station: WNW 31mi, 50km
Updated: Tue, 25-Jun-2024 3:55pm PDT
Clear
Clear
 Wind from WSW
Wind: WSW 7 mph, 11 km/h
Temperature: 57°F, 14°C
Dew Point: 54°F, 12°C
Humidity: 88%
Barometer: 29.97 inHg, 1014.9 hPa
Clouds: Clear
Visibility: 8 miles, 13 km
2024/06/25 22:55 KHAF 252255Z AUTO 24006KT 8SM CLR 14/12 A2997 RMK AO2
 
KHWD - Hayward, California, USA
Distance from station: N 28mi, 44km
Updated: Tue, 25-Jun-2024 3:54pm PDT
Clear
Clear
 Wind from NW
Wind: NW 9 mph, 15 km/h
Temperature: 79°F, 26°C
Dew Point: 50°F, 10°C
Humidity: 37%
Barometer: 29.90 inHg, 1012.5 hPa
Clouds: Clear
Visibility: 10 miles, 16 km
2024/06/25 22:54 KHWD 252254Z 31008KT 10SM CLR 26/10 A2990 RMK AO2 SLP132 T02610100
KLVK - Livermore, California, USA
Distance from station: NNE 31mi, 51km
Updated: Tue, 25-Jun-2024 3:53pm PDT
Clear
Clear
 Wind from WNW
Wind: WNW 20 mph, 31 km/h
Temperature: 91°F, 33°C
Dew Point: 28°F, -2°C
Humidity: 10%
Barometer: 29.86 inHg, 1011.2 hPa
Clouds: Clear
Visibility: 10 miles, 16 km
2024/06/25 22:53 KLVK 252253Z 29017KT 10SM CLR 33/M02 A2986 RMK AO2 SLP107 T03331022